createdAt,value
2023-05-02T00:01:18.935Z,102106.16
2023-05-02T00:03:45.682Z,102104.25
2023-05-02T00:06:12.777Z,102095.38
2023-05-02T00:08:39.551Z,102098.03
2023-05-02T00:11:06.244Z,102101.53
2023-05-02T00:13:32.934Z,102095.25
2023-05-02T00:15:59.573Z,102103.19
2023-05-02T00:18:26.234Z,102098.63
2023-05-02T00:20:52.885Z,102106.56
2023-05-02T00:23:19.639Z,102095.88
2023-05-02T00:25:48.660Z,102099.28
2023-05-02T00:28:15.172Z,102095.59
2023-05-02T00:30:45.436Z,102104.47
2023-05-02T00:33:13.434Z,102107.13
2023-05-02T00:35:41.701Z,102100.88
2023-05-02T00:38:08.314Z,102103.53
2023-05-02T00:40:48.867Z,102110.31
2023-05-02T00:43:15.945Z,102112.00
2023-05-02T00:45:44.241Z,102100.66
2023-05-02T00:48:11.378Z,102103.31
2023-05-02T00:50:40.583Z,102107.66
2023-05-02T00:53:08.322Z,102112.94
2023-05-02T00:55:35.007Z,102116.44
2023-05-02T00:58:04.737Z,102107.66
2023-05-02T01:00:43.432Z,102114.84
2023-05-02T01:03:20.468Z,102115.78
2023-05-02T01:06:11.627Z,102127.53
2023-05-02T01:08:49.271Z,102135.66
2023-05-02T01:11:46.600Z,102138.13
2023-05-02T01:14:15.123Z,102132.06
2023-05-02T01:16:45.837Z,102125.84
2023-05-02T01:19:36.468Z,102124.88
2023-05-02T01:22:06.612Z,102124.47
2023-05-02T01:24:40.431Z,102139.03
2023-05-02T01:27:14.304Z,102140.59
2023-05-02T01:29:43.242Z,102146.59
2023-05-02T01:32:12.754Z,102145.94
2023-05-02T01:34:41.774Z,102142.56
2023-05-02T01:37:11.145Z,102151.34
2023-05-02T01:39:40.094Z,102156.66
2023-05-02T01:42:07.052Z,102163.63
2023-05-02T01:44:36.066Z,102162.88
2023-05-02T01:47:05.592Z,102160.44
2023-05-02T01:49:34.906Z,102170.91
2023-05-02T01:52:08.364Z,102175.44
2023-05-02T01:54:37.386Z,102176.50
2023-05-02T01:57:07.043Z,102188.00
2023-05-02T01:59:35.497Z,102187.16
2023-05-02T02:02:02.931Z,102188.63
2023-05-02T02:04:32.854Z,102208.63
2023-05-02T02:07:03.650Z,102195.44
2023-05-02T02:09:31.439Z,102193.72
2023-05-02T02:12:06.223Z,102194.69
2023-05-02T02:14:38.583Z,102198.25
2023-05-02T02:17:30.118Z,102191.41
2023-05-02T02:20:03.549Z,102195.09
2023-05-02T02:22:36.978Z,102201.31
2023-05-02T02:25:06.839Z,102209.06
2023-05-02T02:27:33.764Z,102218.78
2023-05-02T02:30:03.694Z,102222.38
2023-05-02T02:32:30.650Z,102226.81
2023-05-02T02:34:59.066Z,102220.56
2023-05-02T02:37:32.724Z,102222.47
2023-05-02T02:40:09.497Z,102235.66
2023-05-02T02:42:48.576Z,102234.16
2023-05-02T02:45:36.751Z,102236.03
2023-05-02T02:48:41.838Z,102239.63
2023-05-02T02:51:15.006Z,102242.28
2023-05-02T02:54:23.068Z,102241.50
2023-05-02T02:57:18.590Z,102241.50
2023-05-02T03:00:28.408Z,102245.22
2023-05-02T03:02:56.943Z,102251.53
2023-05-02T03:05:24.412Z,102256.16
2023-05-02T03:07:51.541Z,102253.63
2023-05-02T03:10:18.148Z,102256.25
2023-05-02T03:12:44.878Z,102257.97
2023-05-02T03:15:24.322Z,102263.25
2023-05-02T03:17:51.063Z,102266.81
2023-05-02T03:20:17.975Z,102274.56
2023-05-02T03:22:44.586Z,102273.72
2023-05-02T03:25:11.230Z,102274.66
2023-05-02T03:27:38.172Z,102280.69
2023-05-02T03:30:08.522Z,102275.69
2023-05-02T03:32:35.258Z,102283.69
2023-05-02T03:35:01.962Z,102281.25
2023-05-02T03:37:28.642Z,102291.91
2023-05-02T03:39:55.675Z,102290.31
2023-05-02T03:42:22.260Z,102294.84
2023-05-02T03:44:52.771Z,102296.72
2023-05-02T03:47:19.786Z,102294.09
2023-05-02T03:49:46.836Z,102299.38
2023-05-02T03:52:13.625Z,102299.38
2023-05-02T03:54:43.878Z,102305.59
2023-05-02T03:57:10.743Z,102299.56
2023-05-02T03:59:41.646Z,102304.16
2023-05-02T04:02:08.793Z,102303.41
2023-05-02T04:04:35.705Z,102309.84
2023-05-02T04:07:07.964Z,102313.41
2023-05-02T04:09:34.613Z,102323.22
2023-05-02T04:12:01.611Z,102320.66
2023-05-02T04:14:28.354Z,102324.16
2023-05-02T04:16:55.190Z,102322.63
2023-05-02T04:19:22.284Z,102328.09
2023-05-02T04:21:48.934Z,102329.22
2023-05-02T04:24:16.086Z,102331.97
2023-05-02T04:26:45.826Z,102341.75
2023-05-02T04:29:13.533Z,102341.94
2023-05-02T04:31:40.448Z,102347.97
2023-05-02T04:34:07.562Z,102344.31
2023-05-02T04:36:34.868Z,102351.19
2023-05-02T04:39:01.385Z,102357.34
2023-05-02T04:41:27.987Z,102360.91
2023-05-02T04:43:57.442Z,102369.25
2023-05-02T04:46:24.116Z,102369.59
2023-05-02T04:48:51.120Z,102373.72
2023-05-02T04:51:17.833Z,102385.69
2023-05-02T04:53:44.494Z,102392.13
2023-05-02T04:56:11.608Z,102391.53
2023-05-02T04:58:38.378Z,102402.00
2023-05-02T05:01:04.992Z,102402.00
2023-05-02T05:03:33.367Z,102408.13
2023-05-02T05:06:00.172Z,102404.56
2023-05-02T05:08:27.549Z,102408.81
2023-05-02T05:10:54.257Z,102415.81
2023-05-02T05:13:21.080Z,102418.34
2023-05-02T05:15:48.102Z,102424.47
2023-05-02T05:18:15.357Z,102425.34
2023-05-02T05:20:42.181Z,102425.25
2023-05-02T05:23:08.895Z,102428.81
2023-05-02T05:25:35.614Z,102433.16
2023-05-02T05:28:02.214Z,102440.16
2023-05-02T05:30:30.840Z,102438.31
2023-05-02T05:32:58.816Z,102441.16
2023-05-02T05:35:26.448Z,102445.16
2023-05-02T05:37:53.796Z,102442.19
2023-05-02T05:40:21.378Z,102451.28
2023-05-02T05:42:48.190Z,102455.81
2023-05-02T05:45:17.072Z,102460.31
2023-05-02T05:47:43.737Z,102461.06
2023-05-02T05:50:11.259Z,102467.78
2023-05-02T05:52:38.076Z,102478.25
2023-05-02T05:55:05.254Z,102480.53
2023-05-02T05:57:32.156Z,102482.53
2023-05-02T05:59:58.964Z,102496.28
2023-05-02T06:02:26.372Z,102496.72
2023-05-02T06:04:52.992Z,102502.41
2023-05-02T06:07:19.484Z,102510.09
2023-05-02T06:09:45.901Z,102505.66
2023-05-02T06:12:12.370Z,102510.63
2023-05-02T06:14:38.827Z,102511.88
2023-05-02T06:17:05.327Z,102518.69
2023-05-02T06:19:31.841Z,102512.97
2023-05-02T06:21:58.557Z,102519.19
2023-05-02T06:24:25.196Z,102527.25
2023-05-02T06:26:51.777Z,102527.72
2023-05-02T06:29:18.180Z,102525.84
2023-05-02T06:31:44.926Z,102534.28
2023-05-02T06:34:11.562Z,102540.06
2023-05-02T06:36:38.128Z,102540.63
2023-05-02T06:39:04.636Z,102544.06
2023-05-02T06:41:31.601Z,102552.91
2023-05-02T06:43:58.127Z,102557.44
2023-05-02T06:46:28.846Z,102555.91
2023-05-02T06:48:55.273Z,102561.19
2023-05-02T06:51:23.274Z,102568.03
2023-05-02T06:53:49.932Z,102576.59
2023-05-02T06:56:16.356Z,102582.97
2023-05-02T06:58:42.822Z,102588.41
2023-05-02T07:01:09.500Z,102586.88
2023-05-02T07:03:36.005Z,102592.34
2023-05-02T07:06:04.207Z,102599.84
2023-05-02T07:08:31.087Z,102599.22
2023-05-02T07:10:57.571Z,102597.63
2023-05-02T07:13:24.009Z,102611.06
2023-05-02T07:15:50.422Z,102613.38
2023-05-02T07:18:16.861Z,102611.75
2023-05-02T07:20:46.510Z,102617.06
2023-05-02T07:23:13.004Z,102617.13
2023-05-02T07:25:42.714Z,102621.97
2023-05-02T07:28:12.791Z,102631.69
2023-05-02T07:30:39.288Z,102634.25
2023-05-02T07:33:05.982Z,102635.25
2023-05-02T07:35:32.471Z,102629.88
2023-05-02T07:37:59.197Z,102642.84
2023-05-02T07:40:25.758Z,102632.72
2023-05-02T07:42:52.312Z,102639.34
2023-05-02T07:45:18.898Z,102645.06
2023-05-02T07:47:46.987Z,102648.56
2023-05-02T07:50:13.521Z,102658.06
2023-05-02T07:52:40.045Z,102656.97
2023-05-02T07:55:07.481Z,102656.13
2023-05-02T07:57:34.207Z,102650.16
2023-05-02T08:00:00.929Z,102657.63
2023-05-02T08:02:28.877Z,102655.78
2023-05-02T08:04:55.596Z,102658.44
2023-05-02T08:07:22.147Z,102663.94
2023-05-02T08:09:48.590Z,102667.84
2023-05-02T08:12:14.993Z,102662.09
2023-05-02T08:14:41.510Z,102672.41
2023-05-02T08:17:07.979Z,102677.63
2023-05-02T08:19:34.722Z,102673.78
2023-05-02T08:22:02.488Z,102680.53
2023-05-02T08:24:29.428Z,102682.63
2023-05-02T08:26:55.946Z,102681.84
2023-05-02T08:29:23.757Z,102687.88
2023-05-02T08:31:50.335Z,102694.00
2023-05-02T08:34:18.272Z,102692.28
2023-05-02T08:36:44.915Z,102693.91
2023-05-02T08:39:11.780Z,102696.66
2023-05-02T08:41:38.625Z,102691.19
2023-05-02T08:44:07.542Z,102704.72
2023-05-02T08:46:36.390Z,102694.09
2023-05-02T08:49:03.539Z,102706.69
2023-05-02T08:51:35.154Z,102718.03
2023-05-02T08:54:07.365Z,102714.63
2023-05-02T08:56:34.153Z,102717.88
2023-05-02T08:59:00.620Z,102726.31
2023-05-02T09:01:31.074Z,102723.44
2023-05-02T09:03:59.208Z,102720.44
2023-05-02T09:06:27.251Z,102732.63
2023-05-02T09:08:53.838Z,102727.00
2023-05-02T09:11:21.650Z,102732.88
2023-05-02T09:13:51.112Z,102734.09
2023-05-02T09:16:20.009Z,102729.16
2023-05-02T09:18:48.767Z,102734.97
2023-05-02T09:21:21.236Z,102735.13
2023-05-02T09:24:01.772Z,102729.03
2023-05-02T09:26:33.290Z,102735.28
2023-05-02T09:29:02.166Z,102742.16
2023-05-02T09:34:13.174Z,102736.16
2023-05-02T09:36:42.068Z,102751.34
2023-05-02T09:39:11.465Z,102742.16
2023-05-02T09:41:42.918Z,102750.13
2023-05-02T09:44:18.417Z,102756.69
2023-05-02T09:46:46.956Z,102754.47
2023-05-02T09:49:18.557Z,102754.03
2023-05-02T09:51:48.687Z,102751.84
2023-05-02T09:54:38.414Z,102756.59
2023-05-02T09:57:07.108Z,102763.41
2023-05-02T09:59:33.994Z,102761.13
2023-05-02T10:02:04.795Z,102758.09
2023-05-02T10:04:33.420Z,102762.81
2023-05-02T10:07:02.143Z,102766.28
2023-05-02T10:09:32.386Z,102765.34
2023-05-02T10:12:05.359Z,102756.50
2023-05-02T10:14:41.797Z,102757.56
2023-05-02T10:17:14.063Z,102764.34
2023-05-02T10:20:05.512Z,102777.59
2023-05-02T10:22:37.743Z,102782.75
2023-05-02T10:25:05.157Z,102779.06
2023-05-02T10:27:33.190Z,102788.38
2023-05-02T10:30:10.489Z,102777.81
2023-05-02T10:32:38.444Z,102791.28
2023-05-02T10:35:06.453Z,102789.69
2023-05-02T10:37:37.658Z,102794.88
2023-05-02T10:40:06.215Z,102792.94
2023-05-02T10:42:40.953Z,102794.16
2023-05-02T10:45:33.775Z,102790.38
2023-05-02T10:48:21.454Z,102796.28
2023-05-02T10:51:04.081Z,102793.84
2023-05-02T10:53:39.529Z,102797.22
2023-05-02T10:56:13.191Z,102793.06
2023-05-02T10:58:40.894Z,102790.75
2023-05-02T11:01:29.056Z,102785.97
2023-05-02T11:04:00.146Z,102796.50
2023-05-02T11:06:33.494Z,102798.59
2023-05-02T11:09:18.819Z,102802.81
2023-05-02T11:11:45.841Z,102799.13
2023-05-02T11:14:38.487Z,102804.25
2023-05-02T11:17:04.973Z,102800.00
2023-05-02T11:19:37.366Z,102803.94
2023-05-02T11:22:24.031Z,102794.44
2023-05-02T11:24:51.477Z,102804.34
2023-05-02T11:27:30.595Z,102809.63
2023-05-02T11:30:11.220Z,102819.22
2023-05-02T11:32:44.143Z,102816.16
2023-05-02T11:35:23.949Z,102811.56
2023-05-02T11:37:54.133Z,102821.06
2023-05-02T11:40:20.830Z,102815.63
2023-05-02T11:42:47.690Z,102806.84
2023-05-02T11:45:14.362Z,102806.78
2023-05-02T11:47:42.230Z,102807.78
2023-05-02T11:50:16.531Z,102816.59
2023-05-02T11:52:44.593Z,102815.06
2023-05-02T11:55:14.104Z,102815.84
2023-05-02T11:57:41.103Z,102817.69
2023-05-02T12:00:08.267Z,102825.81
2023-05-02T12:02:42.789Z,102823.00
2023-05-02T12:05:11.815Z,102831.53
2023-05-02T12:07:47.483Z,102835.72
2023-05-02T12:10:14.575Z,102838.91
2023-05-02T12:12:43.513Z,102843.28
2023-05-02T12:15:11.858Z,102842.03
2023-05-02T12:17:53.052Z,102844.06
2023-05-02T12:20:19.817Z,102848.25
2023-05-02T12:22:47.663Z,102852.84
2023-05-02T12:25:14.298Z,102867.63
2023-05-02T12:27:40.997Z,102856.34
2023-05-02T12:30:28.395Z,102860.31
2023-05-02T12:32:59.380Z,102849.00
2023-05-02T12:35:26.227Z,102854.84
2023-05-02T12:37:54.386Z,102869.13
2023-05-02T12:40:21.250Z,102876.03
2023-05-02T12:43:07.313Z,102873.84
2023-05-02T12:45:37.520Z,102870.94
2023-05-02T12:48:20.476Z,102874.44
2023-05-02T12:50:47.278Z,102869.97
2023-05-02T12:53:52.615Z,102884.31
2023-05-02T12:56:20.511Z,102884.41
2023-05-02T12:58:48.965Z,102876.78
2023-05-02T13:01:18.817Z,102883.44
2023-05-02T13:03:51.258Z,102878.66
2023-05-02T13:06:18.690Z,102876.72
2023-05-02T13:08:45.442Z,102883.03
2023-05-02T13:11:13.073Z,102880.78
2023-05-02T13:13:39.618Z,102873.38
2023-05-02T13:16:06.551Z,102880.09
2023-05-02T13:18:33.443Z,102866.38
2023-05-02T13:21:00.188Z,102873.72
2023-05-02T13:23:26.856Z,102875.41
2023-05-02T13:25:53.477Z,102885.50
2023-05-02T13:28:20.062Z,102888.41
2023-05-02T13:30:48.151Z,102884.34
2023-05-02T13:33:17.588Z,102883.94
2023-05-02T13:35:44.088Z,102885.59
2023-05-02T13:38:10.989Z,102889.63
2023-05-02T13:40:37.581Z,102890.81
2023-05-02T13:43:04.217Z,102890.44
2023-05-02T13:45:31.084Z,102887.69
2023-05-02T13:47:58.357Z,102890.44
2023-05-02T13:50:25.406Z,102890.59
2023-05-02T13:52:52.428Z,102877.00
2023-05-02T13:55:20.292Z,102884.47
2023-05-02T13:57:47.476Z,102895.13
2023-05-02T14:00:14.804Z,102900.75
2023-05-02T14:03:10.387Z,102897.53
2023-05-02T14:05:41.319Z,102902.03
2023-05-02T14:08:08.694Z,102897.53
2023-05-02T14:10:37.797Z,102896.56
2023-05-02T14:13:05.025Z,102898.16
2023-05-02T14:15:31.753Z,102901.44
2023-05-02T14:17:58.787Z,102892.47
2023-05-02T14:20:25.741Z,102902.00
2023-05-02T14:22:53.655Z,102893.59
2023-05-02T14:25:20.514Z,102884.91
2023-05-02T14:27:47.460Z,102891.97
2023-05-02T14:30:14.090Z,102893.88
2023-05-02T14:32:40.640Z,102897.47
2023-05-02T14:35:07.429Z,102893.38
2023-05-02T14:37:33.981Z,102908.69
2023-05-02T14:40:01.246Z,102908.03
2023-05-02T14:42:33.597Z,102901.91
2023-05-02T14:45:02.678Z,102900.84
2023-05-02T14:47:32.692Z,102909.66
2023-05-02T14:49:59.805Z,102908.13
2023-05-02T14:52:27.023Z,102915.53
2023-05-02T14:54:53.567Z,102912.41
2023-05-02T14:57:20.701Z,102899.97
2023-05-02T14:59:47.235Z,102905.94
2023-05-02T15:02:14.010Z,102910.88
2023-05-02T15:04:40.961Z,102908.34
2023-05-02T15:07:07.976Z,102905.22
2023-05-02T15:09:34.650Z,102898.06
2023-05-02T15:12:02.450Z,102900.84
2023-05-02T15:14:29.075Z,102892.19
2023-05-02T15:16:55.799Z,102891.34
2023-05-02T15:19:25.298Z,102890.44
2023-05-02T15:22:14.716Z,102891.25
2023-05-02T15:24:41.243Z,102889.16
2023-05-02T15:27:09.413Z,102892.72
2023-05-02T15:29:36.170Z,102902.28
2023-05-02T15:32:04.856Z,102892.06
2023-05-02T15:34:31.366Z,102897.28
2023-05-02T15:36:59.742Z,102903.38
2023-05-02T15:39:27.986Z,102899.38
2023-05-02T15:41:58.232Z,102902.66
2023-05-02T15:44:26.211Z,102900.31
2023-05-02T15:46:55.929Z,102904.53
2023-05-02T15:49:24.491Z,102914.00
2023-05-02T15:51:57.831Z,102909.91
2023-05-02T15:54:24.352Z,102908.59
2023-05-02T15:56:50.812Z,102901.97
2023-05-02T15:59:17.366Z,102898.69
2023-05-02T16:01:44.000Z,102908.31
2023-05-02T16:04:13.021Z,102899.25
2023-05-02T16:06:42.584Z,102909.50
2023-05-02T16:09:10.060Z,102910.50
2023-05-02T16:11:37.334Z,102915.19
2023-05-02T16:14:04.553Z,102912.72
2023-05-02T16:16:32.177Z,102910.34
2023-05-02T16:18:58.729Z,102910.59
2023-05-02T16:21:25.792Z,102912.78
2023-05-02T16:23:52.289Z,102912.03
2023-05-02T16:26:20.280Z,102907.19
2023-05-02T16:28:46.730Z,102915.06
2023-05-02T16:31:14.914Z,102915.50
2023-05-02T16:33:42.829Z,102910.75
2023-05-02T16:36:10.135Z,102912.06
2023-05-02T16:38:36.683Z,102907.06
2023-05-02T16:41:05.139Z,102905.72
2023-05-02T16:43:31.572Z,102916.50
2023-05-02T16:46:06.042Z,102904.88
2023-05-02T16:48:36.818Z,102915.69
2023-05-02T16:51:04.341Z,102916.47
2023-05-02T16:53:31.560Z,102915.34
2023-05-02T16:55:59.409Z,102912.38
2023-05-02T16:58:30.000Z,102920.44
2023-05-02T17:00:56.799Z,102923.66
2023-05-02T17:03:23.385Z,102915.88
2023-05-02T17:05:49.913Z,102918.19
2023-05-02T17:08:16.976Z,102918.19
2023-05-02T17:10:48.533Z,102916.53
2023-05-02T17:13:14.961Z,102928.47
2023-05-02T17:15:41.984Z,102933.47
2023-05-02T17:18:08.489Z,102936.16
2023-05-02T17:20:36.248Z,102939.22
2023-05-02T17:23:02.949Z,102926.47
2023-05-02T17:25:30.464Z,102932.63
2023-05-02T17:27:58.442Z,102922.97
2023-05-02T17:30:25.193Z,102918.22
2023-05-02T17:32:51.827Z,102922.66
2023-05-02T17:35:18.361Z,102921.97
2023-05-02T17:37:44.804Z,102926.34
2023-05-02T17:40:12.278Z,102921.78
2023-05-02T17:42:39.047Z,102925.63
2023-05-02T17:45:06.833Z,102929.47
2023-05-02T17:47:33.282Z,102931.84
2023-05-02T17:50:02.665Z,102936.31
2023-05-02T17:52:29.391Z,102939.06
2023-05-02T17:54:55.814Z,102941.19
2023-05-02T17:57:22.639Z,102939.25
2023-05-02T17:59:50.601Z,102943.13
2023-05-02T18:02:18.060Z,102950.53
2023-05-02T18:04:45.536Z,102946.16
2023-05-02T18:07:12.048Z,102945.75
2023-05-02T18:09:38.583Z,102952.56
2023-05-02T18:12:06.876Z,102951.31
2023-05-02T18:14:33.611Z,102955.38
2023-05-02T18:17:02.806Z,102957.69
2023-05-02T18:19:29.345Z,102959.06
2023-05-02T18:21:56.060Z,102964.84
2023-05-02T18:24:22.887Z,102960.72
2023-05-02T18:26:50.141Z,102960.09
2023-05-02T18:29:16.918Z,102968.41
2023-05-02T18:31:46.169Z,102963.75
2023-05-02T18:34:12.630Z,102964.97
2023-05-02T18:36:39.551Z,102963.66
2023-05-02T18:39:06.182Z,102965.88
2023-05-02T18:41:32.609Z,102966.78
2023-05-02T18:44:00.729Z,102966.25
2023-05-02T18:46:27.471Z,102971.88
2023-05-02T18:48:57.103Z,102968.84
2023-05-02T18:51:24.358Z,102973.94
2023-05-02T18:53:51.553Z,102968.22
2023-05-02T18:56:18.019Z,102972.03
2023-05-02T18:58:44.563Z,102972.19
2023-05-02T19:01:20.165Z,102972.59
2023-05-02T19:03:46.953Z,102977.06
2023-05-02T19:06:14.721Z,102986.00
2023-05-02T19:08:42.369Z,102984.69
2023-05-02T19:11:09.292Z,102988.59
2023-05-02T19:13:35.914Z,102985.38
2023-05-02T19:16:02.407Z,102984.66
2023-05-02T19:18:28.911Z,102988.44
2023-05-02T19:20:55.329Z,102992.25
2023-05-02T19:23:21.684Z,102994.31
2023-05-02T19:25:48.288Z,102992.84
2023-05-02T19:28:16.852Z,102988.63
2023-05-02T19:30:44.452Z,102994.16
2023-05-02T19:33:11.495Z,103003.00
2023-05-02T19:35:38.483Z,102996.94
2023-05-02T19:38:04.988Z,102993.56
2023-05-02T19:40:31.464Z,102991.97
2023-05-02T19:42:58.234Z,102992.25
2023-05-02T19:45:24.734Z,102997.63
2023-05-02T19:47:51.272Z,102997.63
2023-05-02T19:50:17.782Z,103002.16
2023-05-02T19:52:45.822Z,103007.44
2023-05-02T19:55:12.380Z,103007.50
2023-05-02T19:57:40.456Z,103006.56
2023-05-02T20:00:07.483Z,103002.28
2023-05-02T20:02:34.306Z,103008.53
2023-05-02T20:05:01.280Z,103007.03
2023-05-02T20:07:27.924Z,103012.41
2023-05-02T20:09:55.462Z,103023.13
2023-05-02T20:12:21.961Z,103023.22
2023-05-02T20:14:48.752Z,103028.81
2023-05-02T20:17:15.313Z,103037.84
2023-05-02T20:19:41.816Z,103029.97
2023-05-02T20:22:08.338Z,103033.44
2023-05-02T20:24:38.114Z,103035.16
2023-05-02T20:27:07.409Z,103025.81
2023-05-02T20:29:33.931Z,103024.16
2023-05-02T20:32:00.456Z,103026.97
2023-05-02T20:34:26.914Z,103036.78
2023-05-02T20:36:53.301Z,103050.94
2023-05-02T20:39:22.989Z,103045.84
2023-05-02T20:41:50.086Z,103043.16
2023-05-02T20:44:22.577Z,103043.28
2023-05-02T20:46:49.343Z,103047.63
2023-05-02T20:49:16.308Z,103061.38
2023-05-02T20:51:42.753Z,103055.97
2023-05-02T20:54:09.120Z,103063.50
2023-05-02T20:56:35.652Z,103055.56
2023-05-02T20:59:02.100Z,103059.09
2023-05-02T21:01:29.874Z,103052.34
2023-05-02T21:03:57.311Z,103057.06
2023-05-02T21:06:24.082Z,103054.72
2023-05-02T21:08:51.167Z,103054.06
2023-05-02T21:11:17.619Z,103050.72
2023-05-02T21:13:44.070Z,103056.22
2023-05-02T21:16:18.128Z,103052.81
2023-05-02T21:18:45.471Z,103057.41
2023-05-02T21:21:11.976Z,103049.59
2023-05-02T21:23:38.510Z,103052.28
2023-05-02T21:26:05.341Z,103055.25
2023-05-02T21:28:31.939Z,103051.16
2023-05-02T21:30:58.424Z,103054.59
2023-05-02T21:33:24.861Z,103045.09
2023-05-02T21:35:57.949Z,103039.25
2023-05-02T21:38:25.618Z,103048.19
2023-05-02T21:40:52.999Z,103056.91
2023-05-02T21:43:19.685Z,103048.31
2023-05-02T21:45:47.655Z,103045.19
2023-05-02T21:48:15.388Z,103048.97
2023-05-02T21:50:43.158Z,103046.75
2023-05-02T21:53:13.619Z,103048.56
2023-05-02T21:55:41.300Z,103045.44
2023-05-02T21:58:12.232Z,103051.97
2023-05-02T22:00:40.164Z,103052.28
2023-05-02T22:03:08.970Z,103055.91
2023-05-02T22:05:36.001Z,103050.56
2023-05-02T22:08:03.147Z,103046.19
2023-05-02T22:10:30.163Z,103045.38
2023-05-02T22:12:56.662Z,103041.25
2023-05-02T22:15:23.170Z,103038.00
2023-05-02T22:17:50.586Z,103032.88
2023-05-02T22:20:17.156Z,103032.16
2023-05-02T22:22:43.574Z,103030.38
2023-05-02T22:25:10.315Z,103026.91
2023-05-02T22:27:39.228Z,103026.91
2023-05-02T22:30:08.033Z,103025.22
2023-05-02T22:32:34.596Z,103020.09
2023-05-02T22:35:04.594Z,103029.72
2023-05-02T22:37:31.137Z,103028.94
2023-05-02T22:39:57.593Z,103033.41
2023-05-02T22:42:24.575Z,103024.84
2023-05-02T22:44:54.625Z,103017.97
2023-05-02T22:47:25.158Z,103023.19
2023-05-02T22:49:52.615Z,103031.97
2023-05-02T22:52:20.978Z,103025.03
2023-05-02T22:54:48.495Z,103034.75
2023-05-02T22:57:15.022Z,103031.41
2023-05-02T22:59:44.360Z,103033.25
2023-05-02T23:02:13.958Z,103030.66
2023-05-02T23:04:41.495Z,103034.28
2023-05-02T23:07:08.004Z,103030.22
2023-05-02T23:09:34.469Z,103037.31
2023-05-02T23:12:02.655Z,103031.13
2023-05-02T23:14:29.573Z,103039.88
2023-05-02T23:16:56.545Z,103043.38
2023-05-02T23:19:23.084Z,103040.72
2023-05-02T23:21:49.481Z,103048.53
2023-05-02T23:24:16.024Z,103053.81
2023-05-02T23:26:42.432Z,103047.72
2023-05-02T23:29:08.909Z,103050.28
2023-05-02T23:31:35.601Z,103048.47
2023-05-02T23:34:02.172Z,103041.59
2023-05-02T23:36:28.635Z,103048.69
2023-05-02T23:38:55.366Z,103063.69
2023-05-02T23:41:22.362Z,103062.94
2023-05-02T23:43:49.119Z,103066.63
2023-05-02T23:46:15.912Z,103066.75
2023-05-02T23:48:42.439Z,103059.75
2023-05-02T23:51:08.911Z,103058.91
2023-05-02T23:53:35.584Z,103074.59
2023-05-02T23:56:02.070Z,103075.66
2023-05-02T23:58:28.526Z,103076.50
